createdAt,value
2018-06-02T00:02:28.502Z,48.20
2018-06-02T00:04:57.476Z,53.27
2018-06-02T00:07:26.903Z,50.33
2018-06-02T00:09:56.424Z,50.83
2018-06-02T00:12:26.243Z,50.53
2018-06-02T00:14:55.721Z,52.77
2018-06-02T00:17:26.039Z,56.00
2018-06-02T00:19:55.272Z,53.13
2018-06-02T00:22:24.503Z,52.50
2018-06-02T00:24:53.649Z,49.63
2018-06-02T00:27:22.803Z,57.90
2018-06-02T00:29:58.699Z,51.87
2018-06-02T00:32:28.237Z,55.83
2018-06-02T00:34:57.640Z,56.20
2018-06-02T00:37:26.689Z,57.30
2018-06-02T00:39:55.666Z,59.50
2018-06-02T00:42:24.683Z,66.90
2018-06-02T00:44:53.608Z,56.17
2018-06-02T00:47:22.459Z,59.70
2018-06-02T00:49:51.268Z,61.90
2018-06-02T00:52:20.225Z,60.83
2018-06-02T00:55:20.021Z,54.57
2018-06-02T00:57:49.268Z,56.67
2018-06-02T01:00:18.545Z,57.27
2018-06-02T01:02:48.084Z,55.80
2018-06-02T01:05:17.430Z,54.57
2018-06-02T01:07:47.003Z,62.33
2018-06-02T01:10:16.336Z,55.00
2018-06-02T01:12:45.592Z,56.63
2018-06-02T01:15:15.006Z,57.00
2018-06-02T01:17:44.002Z,54.97
2018-06-02T01:20:12.925Z,53.37
2018-06-02T01:22:41.896Z,53.10
2018-06-02T01:25:10.867Z,51.90
2018-06-02T01:27:39.855Z,55.10
2018-06-02T01:30:08.828Z,54.90
2018-06-02T01:32:37.747Z,58.60
2018-06-02T01:35:06.832Z,53.83
2018-06-02T01:37:36.161Z,54.60
2018-06-02T01:40:05.471Z,55.00
2018-06-02T01:42:34.747Z,57.07
2018-06-02T01:45:04.242Z,52.50
2018-06-02T01:47:33.664Z,51.50
2018-06-02T01:50:03.286Z,51.30
2018-06-02T01:52:32.681Z,56.37
2018-06-02T01:55:01.751Z,52.53
2018-06-02T01:57:31.083Z,53.50
2018-06-02T02:00:00.393Z,55.00
2018-06-02T02:02:29.825Z,57.07
2018-06-02T02:04:59.195Z,58.40
2018-06-02T02:07:28.569Z,63.57
2018-06-02T02:09:57.854Z,69.03
2018-06-02T02:12:27.242Z,70.70
2018-06-02T02:14:56.720Z,65.07
2018-06-02T02:17:25.937Z,58.30
2018-06-02T02:19:55.259Z,62.80
2018-06-02T02:22:24.486Z,59.23
2018-06-02T02:24:53.763Z,64.07
2018-06-02T02:27:22.703Z,65.53
2018-06-02T02:29:51.654Z,62.47
2018-06-02T02:32:21.258Z,61.37
2018-06-02T02:34:50.625Z,66.73
2018-06-02T02:37:19.869Z,67.50
2018-06-02T02:39:49.149Z,64.57
2018-06-02T02:42:24.973Z,65.23
2018-06-02T02:44:54.375Z,63.03
2018-06-02T02:47:23.246Z,66.53
2018-06-02T02:49:52.085Z,64.10
2018-06-02T02:52:21.061Z,56.70
2018-06-02T02:54:49.957Z,54.30
2018-06-02T02:57:18.894Z,62.73
2018-06-02T02:59:47.780Z,56.13
2018-06-02T03:02:16.764Z,55.07
2018-06-02T03:04:45.759Z,55.97
2018-06-02T03:07:14.954Z,61.70
2018-06-02T03:09:44.258Z,59.70
2018-06-02T03:12:14.372Z,56.83
2018-06-02T03:14:43.720Z,60.43
2018-06-02T03:17:12.637Z,56.97
2018-06-02T03:19:42.000Z,54.83
2018-06-02T03:22:11.185Z,60.00
2018-06-02T03:24:40.436Z,68.33
2018-06-02T03:27:09.345Z,70.43
2018-06-02T03:29:38.763Z,72.87
2018-06-02T03:32:08.243Z,61.80
2018-06-02T03:34:37.821Z,65.03
2018-06-02T03:37:07.372Z,66.73
2018-06-02T03:39:36.621Z,61.50
2018-06-02T03:42:06.067Z,65.87
2018-06-02T03:44:35.365Z,63.10
2018-06-02T03:47:04.591Z,60.17
2018-06-02T03:49:33.993Z,64.83
2018-06-02T03:52:03.262Z,58.97
2018-06-02T03:54:32.461Z,59.97
2018-06-02T03:57:02.185Z,58.97
2018-06-02T03:59:31.473Z,64.57
2018-06-02T04:04:55.727Z,56.67
2018-06-02T04:07:24.592Z,57.93
2018-06-02T04:09:53.274Z,54.80
2018-06-02T04:12:21.969Z,60.63
2018-06-02T04:14:50.652Z,55.07
2018-06-02T04:17:19.571Z,57.87
2018-06-02T04:19:48.478Z,52.00
2018-06-02T04:22:17.110Z,57.17
2018-06-02T04:24:45.872Z,55.50
2018-06-02T04:27:14.458Z,58.30
2018-06-02T04:29:43.733Z,58.33
2018-06-02T04:32:12.692Z,61.17
2018-06-02T04:34:42.420Z,57.67
2018-06-02T04:37:11.377Z,57.00
2018-06-02T04:39:40.117Z,53.53
2018-06-02T04:42:08.789Z,57.20
2018-06-02T04:44:37.547Z,56.10
2018-06-02T04:47:06.155Z,52.23
2018-06-02T04:49:34.941Z,55.30
2018-06-02T04:52:03.792Z,57.70
2018-06-02T04:54:32.614Z,52.40
2018-06-02T04:57:01.116Z,59.00
2018-06-02T04:59:29.527Z,54.70
2018-06-02T05:01:58.042Z,49.43
2018-06-02T05:04:26.935Z,48.70
2018-06-02T05:06:55.636Z,56.00
2018-06-02T05:09:24.255Z,52.27
2018-06-02T05:11:52.971Z,55.23
2018-06-02T05:14:21.426Z,56.93
2018-06-02T05:16:49.919Z,51.77
2018-06-02T05:19:18.500Z,52.40
2018-06-02T05:21:47.166Z,51.50
2018-06-02T05:24:15.722Z,55.63
2018-06-02T05:26:44.295Z,51.30
2018-06-02T05:29:12.920Z,50.43
2018-06-02T05:31:41.824Z,58.50
2018-06-02T05:34:10.504Z,54.03
2018-06-02T05:36:39.557Z,54.90
2018-06-02T05:39:08.243Z,54.23
2018-06-02T05:41:36.789Z,55.63
2018-06-02T05:44:05.547Z,52.70
2018-06-02T05:46:34.258Z,52.17
2018-06-02T05:49:03.359Z,52.97
2018-06-02T05:51:32.308Z,55.83
2018-06-02T05:54:01.131Z,53.90
2018-06-02T05:56:29.857Z,49.17
2018-06-02T05:58:59.015Z,54.73
2018-06-02T06:01:27.958Z,52.60
2018-06-02T06:03:56.651Z,46.50
2018-06-02T06:06:25.317Z,50.50
2018-06-02T06:08:54.165Z,57.07
2018-06-02T06:11:22.827Z,56.77
2018-06-02T06:13:51.631Z,53.67
2018-06-02T06:16:20.325Z,54.30
2018-06-02T06:18:49.442Z,51.60
2018-06-02T06:21:18.127Z,53.50
2018-06-02T06:23:47.409Z,46.50
2018-06-02T06:26:16.755Z,48.10
2018-06-02T06:28:45.341Z,43.83
2018-06-02T06:31:15.447Z,42.70
2018-06-02T06:33:44.793Z,41.63
2018-06-02T06:36:13.851Z,45.50
2018-06-02T06:38:43.082Z,39.10
2018-06-02T06:41:11.823Z,47.17
2018-06-02T06:43:40.574Z,40.83
2018-06-02T06:46:09.119Z,44.33
2018-06-02T06:48:38.203Z,46.33
2018-06-02T06:51:07.090Z,42.97
2018-06-02T06:53:36.295Z,46.33
2018-06-02T06:56:04.923Z,43.53
2018-06-02T06:58:33.749Z,42.10
2018-06-02T07:01:02.278Z,42.67
2018-06-02T07:03:30.960Z,52.13
2018-06-02T07:06:00.433Z,46.97
2018-06-02T07:08:29.771Z,41.50
2018-06-02T07:10:58.579Z,42.00
2018-06-02T07:13:27.252Z,44.77
2018-06-02T07:15:55.944Z,46.50
2018-06-02T07:18:24.765Z,42.50
2018-06-02T07:20:53.679Z,49.53
2018-06-02T07:23:22.727Z,40.50
2018-06-02T07:25:51.323Z,40.70
2018-06-02T07:28:20.476Z,47.70
2018-06-02T07:30:49.631Z,48.30
2018-06-02T07:33:18.344Z,42.27
2018-06-02T07:35:47.367Z,41.53
2018-06-02T07:38:16.043Z,47.60
2018-06-02T07:40:44.807Z,41.77
2018-06-02T07:43:13.642Z,41.77
2018-06-02T07:45:43.072Z,40.40
2018-06-02T07:48:12.326Z,45.60
2018-06-02T07:50:41.523Z,39.83
2018-06-02T07:53:10.438Z,44.60
2018-06-02T07:55:38.932Z,44.17
2018-06-02T07:58:07.638Z,44.60
2018-06-02T08:00:36.536Z,44.80
2018-06-02T08:03:05.291Z,41.77
2018-06-02T08:05:34.350Z,40.93
2018-06-02T08:08:04.527Z,39.43
2018-06-02T08:10:35.182Z,53.37
2018-06-02T08:13:04.306Z,46.27
2018-06-02T08:15:33.696Z,40.20
2018-06-02T08:18:03.077Z,39.30
2018-06-02T08:20:32.277Z,37.70
2018-06-02T08:23:03.473Z,38.10
2018-06-02T08:25:33.842Z,43.30
2018-06-02T08:28:02.970Z,41.80
2018-06-02T08:30:35.081Z,44.13
2018-06-02T08:33:05.240Z,46.73
2018-06-02T08:35:35.572Z,43.80
2018-06-02T08:38:04.612Z,50.70
2018-06-02T08:40:36.306Z,53.93
2018-06-02T08:43:05.681Z,53.17
2018-06-02T08:45:37.611Z,40.40
2018-06-02T08:48:08.863Z,43.37
2018-06-02T08:50:39.351Z,44.47
2018-06-02T08:53:09.894Z,42.47
2018-06-02T08:55:38.984Z,47.13
2018-06-02T08:58:08.775Z,44.13
2018-06-02T09:00:37.557Z,41.60
2018-06-02T09:03:06.833Z,37.27
2018-06-02T09:05:36.370Z,33.40
2018-06-02T09:08:05.040Z,37.97
2018-06-02T09:10:34.158Z,38.10
2018-06-02T09:13:02.947Z,46.63
2018-06-02T09:15:31.746Z,42.50
2018-06-02T09:18:00.335Z,52.00
2018-06-02T09:20:29.846Z,60.03
2018-06-02T09:22:58.413Z,48.13
2018-06-02T09:25:27.311Z,50.17
2018-06-02T09:27:56.015Z,52.83
2018-06-02T09:30:25.283Z,52.27
2018-06-02T09:32:53.928Z,59.30
2018-06-02T09:35:24.227Z,53.80
2018-06-02T09:37:55.956Z,52.07
2018-06-02T09:40:25.315Z,50.50
2018-06-02T09:42:54.181Z,51.87
2018-06-02T09:45:23.634Z,63.80
2018-06-02T09:47:53.613Z,50.97
2018-06-02T09:50:22.899Z,49.33
2018-06-02T09:52:52.523Z,48.87
2018-06-02T09:55:21.523Z,47.33
2018-06-02T09:57:51.692Z,56.07
2018-06-02T10:00:24.991Z,47.67
2018-06-02T10:02:54.498Z,41.47
2018-06-02T10:05:23.229Z,44.87
2018-06-02T10:07:52.226Z,49.30
2018-06-02T10:13:03.590Z,44.70
2018-06-02T10:15:32.130Z,42.07
2018-06-02T10:18:01.446Z,44.33
2018-06-02T10:20:30.577Z,45.43
2018-06-02T10:22:59.059Z,43.17
2018-06-02T10:25:28.290Z,41.00
2018-06-02T10:27:56.939Z,39.10
2018-06-02T10:30:25.905Z,37.90
2018-06-02T10:32:54.455Z,36.53
2018-06-02T10:35:23.256Z,39.17
2018-06-02T10:37:52.432Z,45.10
2018-06-02T10:40:21.391Z,40.70
2018-06-02T10:42:49.977Z,36.90
2018-06-02T10:45:18.896Z,42.90
2018-06-02T10:47:47.719Z,40.50
2018-06-02T10:50:17.404Z,44.67
2018-06-02T10:52:46.448Z,41.20
2018-06-02T10:55:15.791Z,42.80
2018-06-02T10:57:44.274Z,34.17
2018-06-02T11:00:32.902Z,37.07
2018-06-02T11:03:01.727Z,37.93
2018-06-02T11:05:30.365Z,40.50
2018-06-02T11:08:01.115Z,39.60
2018-06-02T11:10:30.431Z,34.33
2018-06-02T11:13:01.390Z,33.30
2018-06-02T11:15:30.436Z,42.33
2018-06-02T11:18:01.178Z,38.43
2018-06-02T11:20:31.978Z,35.87
2018-06-02T11:23:00.876Z,35.00
2018-06-02T11:25:30.756Z,32.70
